Etusivu
METAR-TAF:

METAR-TAF

Lentoasemat :

Lowell, Idaho, Yhdysvallat

Leveyspiiri: 46-08-39N, Pituuspiiri: 115-35-47W, korkeus merenpinnasta: 480 m

Tämänhetkinen sää

Tämä raportti tehtiin 29 minuuttia sitten, kello 21.52 UTC
Tuuli 3 kn pohjoisesta/koillisesta
Lämpötila 29°C
Kosteus 62%
Ilmanpaine 1013 hPa

METAR: KP69 232152Z AUTO 02003KT 29/21 A2991 RMK AO1 SLP105 T02890211

Aika: 15:21 (22:21 UTC)


TAF: puuttuu

Säähavainnot ja -ennusteet yli 4000 lentoasemalta (METAR- ja TAF-raportit).

Käytössä olevat sääasemat on merkitty karttaan keltaisilla ja punaisilla pisteillä.

Aseta hiiri pisteen päälle nähdäksesi sääaseman nimen.

Klikkaa sitten nähdäksesi säähavainnot ja -ennusteet.

Kartan vaihtaminen: klikkaa mustalla rastilla varustettuja vihreitä pisteitä, niin voit zoomata sisään; viivalla varustettua vihreää pistettä, niin voit zoomata ulos tai vihreitä nuolia, niin pääset viereisille kartoille.


METAR-TAF: